createdAt,value
2017-08-02T00:00:32.876Z,15.70
2017-08-02T00:03:01.408Z,15.60
2017-08-02T00:05:29.955Z,15.70
2017-08-02T00:07:58.256Z,15.70
2017-08-02T00:10:26.594Z,15.70
2017-08-02T00:12:54.960Z,15.70
2017-08-02T00:15:23.316Z,15.70
2017-08-02T00:17:52.583Z,15.70
2017-08-02T00:20:20.889Z,15.70
2017-08-02T00:22:50.002Z,15.50
2017-08-02T00:25:19.072Z,15.50
2017-08-02T00:27:47.421Z,15.50
2017-08-02T00:30:15.725Z,15.40
2017-08-02T00:32:44.079Z,15.50
2017-08-02T00:35:12.464Z,15.50
2017-08-02T00:37:41.531Z,15.50
2017-08-02T00:40:09.845Z,15.50
2017-08-02T00:42:38.283Z,15.70
2017-08-02T00:45:06.661Z,15.80
2017-08-02T00:47:35.196Z,15.80
2017-08-02T00:50:03.570Z,15.80
2017-08-02T00:52:31.888Z,15.70
2017-08-02T00:55:00.196Z,15.70
2017-08-02T00:57:28.540Z,15.70
2017-08-02T00:59:56.837Z,15.60
2017-08-02T01:02:25.217Z,15.60
2017-08-02T01:04:53.529Z,15.60
2017-08-02T01:07:21.875Z,15.60
2017-08-02T01:09:50.232Z,15.50
2017-08-02T01:12:18.532Z,15.50
2017-08-02T01:14:47.648Z,15.50
2017-08-02T01:17:16.751Z,15.40
2017-08-02T01:19:45.879Z,15.30
2017-08-02T01:22:14.183Z,15.30
2017-08-02T01:24:42.536Z,15.30
2017-08-02T01:27:11.921Z,15.20
2017-08-02T01:29:40.255Z,15.20
2017-08-02T01:32:08.779Z,15.20
2017-08-02T01:34:37.189Z,15.10
2017-08-02T01:37:05.604Z,15.10
2017-08-02T01:39:34.066Z,15.00
2017-08-02T01:42:02.381Z,15.00
2017-08-02T01:44:30.792Z,14.90
2017-08-02T01:46:59.865Z,14.90
2017-08-02T01:49:29.763Z,14.90
2017-08-02T01:51:58.132Z,14.80
2017-08-02T01:54:26.466Z,14.90
2017-08-02T01:56:55.715Z,14.90
2017-08-02T01:59:24.863Z,15.00
2017-08-02T02:01:53.219Z,15.00
2017-08-02T02:04:22.335Z,15.10
2017-08-02T02:06:50.643Z,15.00
2017-08-02T02:09:19.000Z,15.10
2017-08-02T02:11:48.069Z,15.30
2017-08-02T02:14:16.426Z,15.30
2017-08-02T02:16:44.732Z,15.40
2017-08-02T02:19:13.027Z,15.50
2017-08-02T02:21:41.576Z,15.40
2017-08-02T02:24:09.902Z,15.40
2017-08-02T02:26:38.724Z,15.40
2017-08-02T02:29:07.454Z,15.60
2017-08-02T02:31:36.604Z,15.50
2017-08-02T02:34:05.001Z,15.50
2017-08-02T02:36:33.310Z,15.50
2017-08-02T02:39:01.615Z,15.50
2017-08-02T02:41:29.959Z,15.50
2017-08-02T02:43:58.269Z,15.50
2017-08-02T02:46:26.581Z,15.50
2017-08-02T02:48:54.952Z,15.60
2017-08-02T02:51:23.256Z,15.50
2017-08-02T02:53:51.847Z,15.60
2017-08-02T02:56:20.233Z,15.60
2017-08-02T02:58:49.312Z,15.50
2017-08-02T03:01:17.719Z,15.50
2017-08-02T03:03:47.637Z,15.50
2017-08-02T03:06:16.897Z,15.40
2017-08-02T03:08:45.222Z,15.40
2017-08-02T03:11:13.626Z,15.40
2017-08-02T03:13:41.972Z,15.40
2017-08-02T03:16:10.277Z,15.30
2017-08-02T03:18:38.693Z,15.30
2017-08-02T03:21:07.219Z,15.20
2017-08-02T03:23:37.452Z,15.20
2017-08-02T03:26:05.971Z,15.20
2017-08-02T03:28:34.319Z,15.10
2017-08-02T03:31:03.389Z,15.00
2017-08-02T03:33:33.044Z,15.00
2017-08-02T03:36:02.157Z,15.10
2017-08-02T03:38:31.228Z,15.00
2017-08-02T03:40:59.579Z,15.00
2017-08-02T03:43:27.888Z,15.00
2017-08-02T03:45:56.239Z,15.00
2017-08-02T03:48:25.388Z,15.00
2017-08-02T03:50:53.732Z,15.00
2017-08-02T03:53:22.112Z,14.90
2017-08-02T03:55:51.223Z,14.90
2017-08-02T03:58:20.297Z,14.80
2017-08-02T04:00:48.916Z,14.80
2017-08-02T04:03:17.224Z,14.80
2017-08-02T04:05:45.575Z,14.80
2017-08-02T04:08:14.260Z,14.80
2017-08-02T04:10:42.668Z,14.70
2017-08-02T04:13:11.294Z,14.70
2017-08-02T04:15:40.524Z,14.60
2017-08-02T04:18:09.002Z,14.60
2017-08-02T04:20:38.482Z,14.60
2017-08-02T04:23:06.900Z,14.60
2017-08-02T04:25:35.279Z,14.70
2017-08-02T04:28:03.589Z,14.60
2017-08-02T04:30:32.703Z,14.60
2017-08-02T04:33:01.100Z,14.60
2017-08-02T04:35:29.448Z,14.60
2017-08-02T04:37:58.143Z,14.60
2017-08-02T04:40:26.492Z,14.60
2017-08-02T04:43:00.339Z,14.60
2017-08-02T04:45:29.176Z,14.60
2017-08-02T04:47:58.488Z,14.90
2017-08-02T04:50:26.800Z,14.90
2017-08-02T04:52:55.135Z,15.00
2017-08-02T04:55:23.556Z,15.10
2017-08-02T04:57:51.899Z,15.10
2017-08-02T05:00:21.183Z,15.00
2017-08-02T05:02:49.483Z,14.90
2017-08-02T05:05:17.843Z,15.00
2017-08-02T05:07:46.143Z,14.90
2017-08-02T05:10:15.227Z,14.90
2017-08-02T05:12:43.919Z,14.90
2017-08-02T05:15:12.449Z,15.00
2017-08-02T05:17:41.636Z,15.30
2017-08-02T05:20:09.976Z,15.30
2017-08-02T05:22:40.309Z,15.40
2017-08-02T05:25:09.192Z,15.50
2017-08-02T05:27:38.825Z,15.70
2017-08-02T05:30:07.231Z,15.60
2017-08-02T05:32:35.544Z,15.70
2017-08-02T05:35:03.884Z,15.80
2017-08-02T05:37:32.370Z,15.90
2017-08-02T05:40:01.948Z,16.10
2017-08-02T05:42:30.452Z,16.10
2017-08-02T05:44:58.844Z,16.00
2017-08-02T05:47:27.200Z,16.00
2017-08-02T05:49:55.595Z,16.00
2017-08-02T05:52:23.935Z,16.00
2017-08-02T05:54:52.239Z,16.10
2017-08-02T05:57:20.588Z,16.20
2017-08-02T05:59:48.880Z,16.20
2017-08-02T06:02:17.225Z,16.40
2017-08-02T06:04:45.713Z,16.50
2017-08-02T06:07:14.101Z,16.60
2017-08-02T06:09:42.588Z,16.80
2017-08-02T06:12:10.933Z,16.90
2017-08-02T06:14:39.343Z,16.90
2017-08-02T06:17:08.645Z,17.10
2017-08-02T06:19:38.203Z,17.20
2017-08-02T06:22:06.501Z,17.30
2017-08-02T06:24:34.924Z,17.50
2017-08-02T06:27:03.288Z,17.50
2017-08-02T06:29:31.639Z,17.60
2017-08-02T06:32:00.015Z,17.70
2017-08-02T06:34:28.601Z,17.70
2017-08-02T06:36:56.940Z,17.80
2017-08-02T06:39:25.271Z,18.00
2017-08-02T06:41:53.560Z,18.40
2017-08-02T06:44:21.847Z,18.60
2017-08-02T06:46:50.184Z,18.80
2017-08-02T06:49:18.509Z,19.00
2017-08-02T06:51:46.861Z,19.30
2017-08-02T06:54:15.323Z,19.60
2017-08-02T06:56:43.660Z,19.50
2017-08-02T06:59:12.029Z,19.40
2017-08-02T07:01:40.672Z,19.60
2017-08-02T07:04:09.327Z,19.70
2017-08-02T07:06:37.781Z,19.90
2017-08-02T07:09:06.119Z,20.10
2017-08-02T07:11:34.503Z,20.20
2017-08-02T07:14:03.540Z,20.40
2017-08-02T07:16:31.836Z,20.30
2017-08-02T07:19:00.284Z,20.00
2017-08-02T07:21:28.684Z,20.00
2017-08-02T07:23:57.933Z,20.00
2017-08-02T07:26:26.260Z,19.70
2017-08-02T07:28:54.547Z,19.60
2017-08-02T07:31:22.843Z,19.60
2017-08-02T07:33:51.175Z,19.60
2017-08-02T07:36:19.500Z,19.60
2017-08-02T07:38:47.857Z,19.60
2017-08-02T07:41:16.208Z,19.60
2017-08-02T07:43:44.569Z,19.70
2017-08-02T07:46:13.015Z,19.90
2017-08-02T07:48:41.634Z,20.00
2017-08-02T07:51:10.045Z,19.90
2017-08-02T07:53:38.430Z,19.90
2017-08-02T07:56:06.878Z,19.90
2017-08-02T07:58:36.171Z,20.10
2017-08-02T08:01:04.497Z,20.20
2017-08-02T08:03:32.841Z,20.20
2017-08-02T08:06:01.172Z,20.30
2017-08-02T08:08:29.486Z,20.50
2017-08-02T08:10:57.855Z,20.50
2017-08-02T08:13:26.276Z,20.30
2017-08-02T08:15:54.604Z,20.50
2017-08-02T08:18:22.892Z,20.50
2017-08-02T08:20:51.215Z,20.40
2017-08-02T08:23:19.555Z,20.60
2017-08-02T08:25:47.836Z,20.60
2017-08-02T08:28:16.264Z,20.80
2017-08-02T08:30:44.582Z,20.70
2017-08-02T08:33:12.881Z,20.60
2017-08-02T08:35:41.262Z,20.60
2017-08-02T08:38:09.702Z,20.50
2017-08-02T08:40:38.218Z,20.50
2017-08-02T08:43:06.597Z,20.40
2017-08-02T08:45:34.971Z,20.50
2017-08-02T08:48:03.457Z,20.50
2017-08-02T08:50:31.755Z,20.50
2017-08-02T08:53:00.140Z,20.80
2017-08-02T08:55:28.542Z,20.80
2017-08-02T08:57:56.919Z,21.10
2017-08-02T09:00:25.219Z,21.30
2017-08-02T09:02:53.652Z,21.40
2017-08-02T09:05:21.940Z,21.60
2017-08-02T09:07:50.243Z,21.90
2017-08-02T09:10:18.569Z,21.60
2017-08-02T09:12:46.863Z,21.40
2017-08-02T09:15:15.300Z,21.20
2017-08-02T09:17:43.636Z,21.10
2017-08-02T09:20:12.047Z,20.90
2017-08-02T09:22:40.536Z,20.90
2017-08-02T09:25:08.983Z,20.80
2017-08-02T09:27:38.575Z,20.80
2017-08-02T09:30:06.999Z,20.90
2017-08-02T09:32:35.340Z,20.80
2017-08-02T09:35:03.781Z,20.70
2017-08-02T09:37:32.081Z,20.70
2017-08-02T09:40:00.422Z,21.10
2017-08-02T09:42:28.891Z,21.80
2017-08-02T09:44:57.188Z,22.20
2017-08-02T09:47:25.491Z,21.90
2017-08-02T09:49:53.827Z,21.50
2017-08-02T09:52:22.172Z,21.60
2017-08-02T09:54:50.496Z,21.60
2017-08-02T09:57:18.792Z,21.80
2017-08-02T09:59:47.140Z,22.00
2017-08-02T10:02:15.483Z,21.80
2017-08-02T10:04:43.904Z,21.70
2017-08-02T10:07:12.345Z,21.80
2017-08-02T10:09:40.698Z,22.30
2017-08-02T10:12:09.133Z,22.10
2017-08-02T10:14:37.523Z,22.10
2017-08-02T10:17:05.891Z,22.40
2017-08-02T10:19:34.797Z,22.20
2017-08-02T10:22:03.124Z,22.70
2017-08-02T10:24:31.501Z,23.10
2017-08-02T10:26:59.864Z,23.10
2017-08-02T10:29:28.256Z,23.20
2017-08-02T10:31:56.543Z,22.40
2017-08-02T10:34:24.884Z,22.40
2017-08-02T10:36:53.172Z,22.40
2017-08-02T10:39:21.507Z,22.80
2017-08-02T10:41:49.797Z,22.40
2017-08-02T10:44:18.696Z,22.60
2017-08-02T10:46:47.041Z,22.20
2017-08-02T10:49:15.724Z,21.80
2017-08-02T10:51:44.273Z,21.60
2017-08-02T10:54:12.689Z,22.00
2017-08-02T10:56:41.065Z,22.50
2017-08-02T10:59:12.256Z,22.60
2017-08-02T11:01:40.639Z,22.70
2017-08-02T11:04:09.016Z,23.10
2017-08-02T11:06:37.440Z,23.20
2017-08-02T11:09:05.782Z,23.40
2017-08-02T11:11:35.004Z,23.80
2017-08-02T11:14:03.595Z,23.80
2017-08-02T11:16:31.886Z,23.90
2017-08-02T11:19:00.357Z,24.00
2017-08-02T11:21:28.692Z,24.50
2017-08-02T11:23:56.989Z,24.40
2017-08-02T11:26:25.353Z,24.30
2017-08-02T11:28:53.640Z,24.10
2017-08-02T11:31:22.118Z,23.40
2017-08-02T11:33:50.399Z,23.30
2017-08-02T11:36:18.691Z,23.70
2017-08-02T11:38:47.029Z,23.50
2017-08-02T11:41:15.368Z,23.50
2017-08-02T11:43:44.127Z,23.50
2017-08-02T11:46:12.703Z,24.00
2017-08-02T11:48:41.055Z,23.10
2017-08-02T11:51:09.508Z,23.30
2017-08-02T11:53:38.687Z,23.40
2017-08-02T11:56:07.045Z,23.60
2017-08-02T11:58:35.398Z,24.00
2017-08-02T12:01:05.007Z,24.50
2017-08-02T12:03:33.377Z,24.10
2017-08-02T12:06:03.088Z,24.20
2017-08-02T12:08:31.439Z,24.20
2017-08-02T12:10:59.796Z,24.50
2017-08-02T12:13:28.121Z,24.40
2017-08-02T12:15:57.332Z,24.20
2017-08-02T12:18:26.465Z,23.90
2017-08-02T12:20:55.564Z,24.40
2017-08-02T12:23:24.671Z,24.20
2017-08-02T12:25:53.096Z,24.20
2017-08-02T12:28:21.387Z,25.00
2017-08-02T12:30:49.679Z,25.10
2017-08-02T12:33:18.032Z,24.90
2017-08-02T12:35:47.083Z,24.70
2017-08-02T12:38:15.440Z,24.70
2017-08-02T12:40:44.611Z,24.70
2017-08-02T12:43:14.123Z,25.10
2017-08-02T12:45:42.564Z,25.10
2017-08-02T12:48:10.938Z,24.90
2017-08-02T12:50:39.593Z,25.80
2017-08-02T12:53:08.942Z,26.20
2017-08-02T12:55:37.393Z,26.20
2017-08-02T12:58:06.577Z,25.50
2017-08-02T13:00:34.952Z,25.50
2017-08-02T13:03:05.289Z,24.80
2017-08-02T13:05:33.664Z,24.70
2017-08-02T13:08:02.960Z,25.30
2017-08-02T13:10:31.260Z,25.30
2017-08-02T13:12:59.568Z,25.70
2017-08-02T13:15:28.725Z,26.00
2017-08-02T13:17:57.012Z,26.00
2017-08-02T13:20:25.351Z,26.60
2017-08-02T13:22:54.565Z,26.00
2017-08-02T13:25:23.659Z,25.90
2017-08-02T13:27:51.995Z,25.90
2017-08-02T13:30:20.332Z,24.80
2017-08-02T13:32:48.672Z,24.20
2017-08-02T13:35:16.963Z,24.00
2017-08-02T13:37:45.305Z,23.80
2017-08-02T13:40:15.571Z,23.90
2017-08-02T13:42:43.917Z,24.10
2017-08-02T13:45:12.219Z,24.40
2017-08-02T13:47:40.559Z,24.70
2017-08-02T13:50:08.918Z,24.10
2017-08-02T13:52:37.335Z,23.90
2017-08-02T13:55:05.619Z,23.70
2017-08-02T13:57:33.999Z,24.00
2017-08-02T14:00:02.328Z,24.30
2017-08-02T14:02:30.616Z,23.60
2017-08-02T14:04:58.964Z,23.90
2017-08-02T14:07:27.317Z,23.90
2017-08-02T14:09:55.629Z,24.10
2017-08-02T14:12:23.964Z,24.00
2017-08-02T14:14:52.316Z,24.20
2017-08-02T14:17:20.608Z,24.40
2017-08-02T14:19:49.036Z,24.40
2017-08-02T14:22:17.436Z,23.80
2017-08-02T14:24:47.316Z,24.50
2017-08-02T14:27:15.753Z,24.70
2017-08-02T14:29:44.059Z,24.50
2017-08-02T14:32:12.377Z,24.70
2017-08-02T14:34:40.740Z,24.00
2017-08-02T14:37:09.211Z,23.40
2017-08-02T14:39:37.532Z,23.20
2017-08-02T14:42:05.887Z,23.40
2017-08-02T14:44:34.349Z,23.20
2017-08-02T14:47:02.652Z,23.00
2017-08-02T14:49:30.992Z,22.90
2017-08-02T14:51:59.275Z,23.10
2017-08-02T14:54:27.733Z,23.20
2017-08-02T14:56:56.024Z,22.80
2017-08-02T14:59:24.444Z,22.70
2017-08-02T15:01:52.775Z,22.60
2017-08-02T15:04:21.119Z,22.70
2017-08-02T15:06:49.408Z,22.70
2017-08-02T15:09:17.740Z,22.50
2017-08-02T15:11:46.086Z,22.40
2017-08-02T15:14:14.381Z,22.30
2017-08-02T15:16:42.721Z,22.40
2017-08-02T15:19:11.036Z,22.50
2017-08-02T15:21:39.334Z,22.20
2017-08-02T15:24:08.394Z,22.50
2017-08-02T15:26:39.064Z,22.60
2017-08-02T15:29:07.387Z,22.60
2017-08-02T15:31:35.752Z,22.60
2017-08-02T15:34:05.056Z,22.60
2017-08-02T15:36:33.397Z,22.40
2017-08-02T15:39:01.684Z,22.30
2017-08-02T15:41:35.144Z,22.40
2017-08-02T15:44:03.583Z,22.00
2017-08-02T15:46:31.872Z,22.20
2017-08-02T15:49:00.276Z,22.20
2017-08-02T15:51:28.624Z,22.40
2017-08-02T15:53:57.297Z,22.00
2017-08-02T15:56:26.902Z,22.10
2017-08-02T15:58:55.279Z,21.90
2017-08-02T16:01:23.713Z,22.00
2017-08-02T16:03:52.052Z,21.90
2017-08-02T16:06:20.339Z,22.00
2017-08-02T16:08:50.883Z,21.90
2017-08-02T16:11:19.224Z,22.10
2017-08-02T16:13:47.546Z,22.20
2017-08-02T16:16:15.834Z,22.40
2017-08-02T16:18:44.176Z,22.30
2017-08-02T16:21:12.471Z,22.40
2017-08-02T16:23:40.760Z,21.90
2017-08-02T16:26:09.160Z,21.90
2017-08-02T16:28:37.500Z,21.80
2017-08-02T16:31:05.844Z,21.90
2017-08-02T16:33:34.136Z,21.80
2017-08-02T16:36:02.469Z,21.80
2017-08-02T16:38:30.758Z,21.80
2017-08-02T16:40:59.228Z,21.80
2017-08-02T16:43:27.576Z,21.60
2017-08-02T16:45:55.899Z,21.60
2017-08-02T16:48:25.185Z,21.60
2017-08-02T16:50:54.599Z,21.50
2017-08-02T16:53:22.879Z,21.60
2017-08-02T16:55:51.224Z,21.50
2017-08-02T16:58:24.485Z,21.50
2017-08-02T17:00:52.766Z,21.40
2017-08-02T17:03:21.177Z,21.20
2017-08-02T17:05:49.524Z,21.20
2017-08-02T17:08:17.852Z,21.10
2017-08-02T17:10:46.144Z,21.00
2017-08-02T17:13:14.476Z,21.00
2017-08-02T17:15:42.768Z,21.00
2017-08-02T17:18:11.113Z,21.00
2017-08-02T17:20:39.488Z,20.90
2017-08-02T17:23:07.824Z,21.00
2017-08-02T17:25:36.501Z,21.00
2017-08-02T17:28:04.787Z,21.10
2017-08-02T17:30:33.090Z,21.00
2017-08-02T17:33:01.415Z,21.00
2017-08-02T17:35:29.919Z,21.00
2017-08-02T17:37:58.321Z,20.90
2017-08-02T17:40:26.914Z,20.90
2017-08-02T17:42:56.189Z,20.80
2017-08-02T17:45:24.489Z,20.80
2017-08-02T17:47:53.664Z,20.70
2017-08-02T17:50:22.012Z,20.70
2017-08-02T17:52:50.336Z,20.70
2017-08-02T17:55:18.675Z,20.60
2017-08-02T17:57:46.964Z,20.60
2017-08-02T18:00:18.386Z,20.70
2017-08-02T18:02:46.679Z,20.80
2017-08-02T18:05:14.991Z,20.60
2017-08-02T18:07:43.323Z,20.60
2017-08-02T18:10:11.757Z,20.60
2017-08-02T18:12:40.227Z,20.70
2017-08-02T18:15:08.559Z,20.60
2017-08-02T18:17:36.944Z,20.60
2017-08-02T18:20:05.296Z,20.50
2017-08-02T18:22:33.587Z,20.50
2017-08-02T18:25:01.959Z,20.50
2017-08-02T18:27:30.259Z,20.40
2017-08-02T18:29:58.733Z,20.20
2017-08-02T18:32:27.038Z,20.20
2017-08-02T18:34:55.337Z,20.10
2017-08-02T18:37:23.677Z,20.10
2017-08-02T18:39:52.026Z,20.10
2017-08-02T18:42:20.312Z,20.00
2017-08-02T18:44:48.595Z,19.90
2017-08-02T18:47:16.927Z,19.80
2017-08-02T18:49:45.265Z,19.70
2017-08-02T18:52:13.556Z,19.70
2017-08-02T18:54:42.284Z,19.60
2017-08-02T18:57:10.596Z,19.50
2017-08-02T18:59:38.935Z,19.50
2017-08-02T19:02:07.871Z,19.50
2017-08-02T19:04:36.167Z,19.40
2017-08-02T19:07:04.504Z,19.40
2017-08-02T19:09:32.792Z,19.50
2017-08-02T19:12:01.128Z,19.40
2017-08-02T19:14:29.869Z,19.40
2017-08-02T19:16:58.985Z,19.40
2017-08-02T19:19:27.321Z,19.40
2017-08-02T19:21:55.619Z,19.40
2017-08-02T19:24:23.990Z,19.30
2017-08-02T19:26:52.285Z,19.30
2017-08-02T19:29:20.573Z,19.10
2017-08-02T19:31:48.903Z,19.00
2017-08-02T19:34:18.025Z,18.80
2017-08-02T19:36:47.140Z,18.80
2017-08-02T19:39:15.432Z,18.80
2017-08-02T19:41:43.769Z,18.80
2017-08-02T19:44:12.208Z,18.80
2017-08-02T19:46:40.932Z,18.90
2017-08-02T19:49:09.232Z,18.70
2017-08-02T19:51:37.576Z,18.70
2017-08-02T19:54:06.864Z,18.80
2017-08-02T19:56:35.160Z,18.80
2017-08-02T19:59:03.459Z,18.80
2017-08-02T20:01:32.559Z,18.70
2017-08-02T20:04:00.848Z,18.70
2017-08-02T20:06:29.994Z,18.70
2017-08-02T20:08:58.306Z,18.60
2017-08-02T20:11:26.656Z,18.60
2017-08-02T20:13:54.988Z,18.50
2017-08-02T20:16:23.325Z,18.40
2017-08-02T20:18:51.636Z,18.40
2017-08-02T20:21:19.972Z,18.30
2017-08-02T20:23:49.192Z,18.20
2017-08-02T20:26:17.496Z,18.10
2017-08-02T20:28:45.828Z,18.10
2017-08-02T20:31:14.117Z,18.00
2017-08-02T20:33:42.476Z,18.00
2017-08-02T20:36:10.766Z,17.90
2017-08-02T20:38:39.124Z,17.90
2017-08-02T20:41:07.420Z,17.90
2017-08-02T20:43:35.713Z,18.00
2017-08-02T20:46:04.058Z,18.00
2017-08-02T20:48:32.361Z,18.00
2017-08-02T20:51:00.693Z,18.00
2017-08-02T20:53:28.979Z,18.00
2017-08-02T20:55:57.319Z,18.00
2017-08-02T20:58:25.632Z,17.90
2017-08-02T21:00:54.059Z,17.90
2017-08-02T21:03:22.437Z,17.90
2017-08-02T21:05:50.863Z,17.80
2017-08-02T21:08:19.265Z,17.80
2017-08-02T21:10:47.599Z,17.70
2017-08-02T21:13:16.028Z,17.70
2017-08-02T21:15:44.333Z,17.70
2017-08-02T21:18:12.632Z,17.70
2017-08-02T21:20:40.997Z,17.60
2017-08-02T21:23:09.296Z,17.60
2017-08-02T21:25:37.647Z,17.50
2017-08-02T21:28:05.940Z,17.50
2017-08-02T21:30:34.311Z,17.50
2017-08-02T21:33:02.607Z,17.40
2017-08-02T21:35:30.895Z,17.50
2017-08-02T21:37:59.335Z,17.40
2017-08-02T21:40:27.757Z,17.50
2017-08-02T21:42:56.079Z,17.50
2017-08-02T21:45:38.026Z,17.40
2017-08-02T21:48:06.632Z,17.40
2017-08-02T21:50:34.996Z,17.40
2017-08-02T21:53:04.140Z,17.40
2017-08-02T21:55:32.438Z,17.40
2017-08-02T21:58:00.817Z,17.40
2017-08-02T22:00:29.871Z,17.30
2017-08-02T22:02:58.164Z,17.30
2017-08-02T22:05:26.508Z,17.20
2017-08-02T22:07:54.838Z,17.20
2017-08-02T22:10:23.173Z,17.10
2017-08-02T22:12:51.484Z,17.10
2017-08-02T22:15:19.828Z,17.10
2017-08-02T22:17:48.176Z,17.30
2017-08-02T22:20:16.481Z,17.30
2017-08-02T22:22:44.824Z,17.10
2017-08-02T22:25:13.174Z,17.00
2017-08-02T22:27:41.619Z,17.10
2017-08-02T22:30:09.929Z,17.10
2017-08-02T22:32:38.249Z,17.00
2017-08-02T22:35:06.624Z,16.90
2017-08-02T22:37:34.919Z,16.90
2017-08-02T22:40:03.220Z,16.90
2017-08-02T22:42:35.307Z,17.00
2017-08-02T22:45:03.657Z,16.90
2017-08-02T22:47:32.007Z,16.90
2017-08-02T22:50:00.303Z,16.80
2017-08-02T22:52:28.595Z,16.80
2017-08-02T22:54:56.938Z,16.70
2017-08-02T22:57:26.044Z,16.80
2017-08-02T22:59:55.160Z,16.80
2017-08-02T23:02:23.519Z,16.80
2017-08-02T23:04:51.824Z,16.70
2017-08-02T23:07:20.825Z,16.70
2017-08-02T23:09:49.124Z,16.70
2017-08-02T23:12:18.212Z,16.60
2017-08-02T23:14:46.512Z,16.60
2017-08-02T23:17:14.851Z,16.70
2017-08-02T23:19:43.152Z,16.60
2017-08-02T23:22:11.688Z,16.60
2017-08-02T23:24:40.756Z,16.60
2017-08-02T23:27:09.065Z,16.60
2017-08-02T23:29:37.408Z,16.60
2017-08-02T23:32:05.749Z,16.60
2017-08-02T23:34:34.084Z,16.60
2017-08-02T23:37:02.381Z,16.50
2017-08-02T23:39:30.719Z,16.50
2017-08-02T23:41:59.024Z,16.50
2017-08-02T23:44:28.124Z,16.50
2017-08-02T23:46:56.430Z,16.40
2017-08-02T23:49:25.505Z,16.40
2017-08-02T23:51:53.846Z,16.40
2017-08-02T23:54:22.143Z,16.40
2017-08-02T23:56:50.488Z,16.40
2017-08-02T23:59:18.825Z,16.50
